createdAt,value
2023-02-15T00:00:01.016Z,28.00
2023-02-15T00:02:27.903Z,28.03
2023-02-15T00:04:56.997Z,27.83
2023-02-15T00:07:23.796Z,28.37
2023-02-15T00:09:50.657Z,29.10
2023-02-15T00:12:17.530Z,27.50
2023-02-15T00:14:44.604Z,26.77
2023-02-15T00:17:11.602Z,27.97
2023-02-15T00:19:38.446Z,28.30
2023-02-15T00:22:05.270Z,26.77
2023-02-15T00:24:32.066Z,26.70
2023-02-15T00:26:59.556Z,27.50
2023-02-15T00:29:26.595Z,25.70
2023-02-15T00:31:54.205Z,28.40
2023-02-15T00:34:23.696Z,28.60
2023-02-15T00:36:51.098Z,24.93
2023-02-15T00:39:19.299Z,26.47
2023-02-15T00:41:47.371Z,26.60
2023-02-15T00:44:16.362Z,26.17
2023-02-15T00:46:44.225Z,25.47
2023-02-15T00:49:11.619Z,24.30
2023-02-15T00:51:40.477Z,25.60
2023-02-15T00:54:07.750Z,24.67
2023-02-15T00:56:36.729Z,24.23
2023-02-15T00:59:03.690Z,24.27
2023-02-15T01:01:30.789Z,24.00
2023-02-15T01:03:57.983Z,23.77
2023-02-15T01:06:25.055Z,24.80
2023-02-15T01:08:53.125Z,22.80
2023-02-15T01:11:23.323Z,23.73
2023-02-15T01:13:52.299Z,24.40
2023-02-15T01:16:19.684Z,23.33
2023-02-15T01:18:47.420Z,22.27
2023-02-15T01:21:16.612Z,22.90
2023-02-15T01:23:44.057Z,23.57
2023-02-15T01:26:11.130Z,22.13
2023-02-15T01:28:38.919Z,21.07
2023-02-15T01:31:12.736Z,22.90
2023-02-15T01:33:40.035Z,22.67
2023-02-15T01:36:07.444Z,21.87
2023-02-15T01:38:35.828Z,21.37
2023-02-15T01:41:21.086Z,21.67
2023-02-15T01:43:56.819Z,21.93
2023-02-15T01:46:32.174Z,19.93
2023-02-15T01:49:21.790Z,21.27
2023-02-15T01:51:52.236Z,21.10
2023-02-15T01:54:30.428Z,21.63
2023-02-15T01:57:03.511Z,20.37
2023-02-15T01:59:33.904Z,21.43
2023-02-15T02:02:01.658Z,21.17
2023-02-15T02:04:34.735Z,24.43
2023-02-15T02:07:02.076Z,25.27
2023-02-15T02:09:30.037Z,27.17
2023-02-15T02:11:57.289Z,23.67
2023-02-15T02:14:25.296Z,19.80
2023-02-15T02:17:22.203Z,18.43
2023-02-15T02:20:17.777Z,19.73
2023-02-15T02:22:59.751Z,19.20
2023-02-15T02:25:41.557Z,18.13
2023-02-15T02:29:00.547Z,18.03
2023-02-15T02:31:55.736Z,18.97
2023-02-15T02:34:32.741Z,18.63
2023-02-15T02:37:20.976Z,18.63
2023-02-15T02:39:55.094Z,19.37
2023-02-15T02:42:36.850Z,20.13
2023-02-15T02:45:16.429Z,18.90
2023-02-15T02:47:52.068Z,19.73
2023-02-15T02:50:24.144Z,19.13
2023-02-15T02:52:53.286Z,20.10
2023-02-15T02:55:53.448Z,20.43
2023-02-15T02:58:34.748Z,21.10
2023-02-15T03:01:07.278Z,21.90
2023-02-15T03:03:41.359Z,19.03
2023-02-15T03:06:21.285Z,20.33
2023-02-15T03:08:51.873Z,20.90
2023-02-15T03:11:19.037Z,21.40
2023-02-15T03:13:49.600Z,21.43
2023-02-15T03:16:27.165Z,20.77
2023-02-15T03:18:58.932Z,19.90
2023-02-15T03:22:04.830Z,20.37
2023-02-15T03:24:40.906Z,19.77
2023-02-15T03:27:18.551Z,21.40
2023-02-15T03:29:52.738Z,20.47
2023-02-15T03:32:20.447Z,19.30
2023-02-15T03:34:47.684Z,20.77
2023-02-15T03:37:37.599Z,19.80
2023-02-15T03:40:44.606Z,20.40
2023-02-15T03:43:38.152Z,19.30
2023-02-15T03:46:31.192Z,18.93
2023-02-15T03:49:14.402Z,20.43
2023-02-15T03:51:44.553Z,19.83
2023-02-15T03:54:44.160Z,18.07
2023-02-15T03:57:41.986Z,18.30
2023-02-15T04:00:35.020Z,16.13
2023-02-15T04:03:25.557Z,16.67
2023-02-15T04:05:52.655Z,16.17
2023-02-15T04:08:19.671Z,17.53
2023-02-15T04:10:57.074Z,15.80
2023-02-15T04:13:30.925Z,17.43
2023-02-15T04:16:07.810Z,15.13
2023-02-15T04:19:02.827Z,15.73
2023-02-15T04:21:50.449Z,16.93
2023-02-15T04:24:36.289Z,17.77
2023-02-15T04:27:05.223Z,18.30
2023-02-15T04:29:32.882Z,19.27
2023-02-15T04:32:01.477Z,18.30
2023-02-15T04:34:28.440Z,18.43
2023-02-15T04:36:56.644Z,18.37
2023-02-15T04:39:23.658Z,18.77
2023-02-15T04:41:50.507Z,19.10
2023-02-15T04:44:17.343Z,19.77
2023-02-15T04:46:44.146Z,20.47
2023-02-15T04:49:12.034Z,18.23
2023-02-15T04:51:39.144Z,18.13
2023-02-15T04:54:05.988Z,19.17
2023-02-15T04:56:34.214Z,19.33
2023-02-15T04:59:01.541Z,19.63
2023-02-15T05:01:28.967Z,18.40
2023-02-15T05:03:56.190Z,17.13
2023-02-15T05:06:23.380Z,15.97
2023-02-15T05:08:50.377Z,17.97
2023-02-15T05:11:17.234Z,18.30
2023-02-15T05:13:46.178Z,18.33
2023-02-15T05:16:13.205Z,18.03
2023-02-15T05:18:40.099Z,18.83
2023-02-15T05:21:06.892Z,20.73
2023-02-15T05:23:33.778Z,21.80
2023-02-15T05:26:19.561Z,22.60
2023-02-15T05:28:46.508Z,22.37
2023-02-15T05:31:17.356Z,20.23
2023-02-15T05:33:45.093Z,19.00
2023-02-15T05:36:12.488Z,20.17
2023-02-15T05:38:40.292Z,22.77
2023-02-15T05:41:07.890Z,21.17
2023-02-15T05:43:34.904Z,19.03
2023-02-15T05:46:02.940Z,21.60
2023-02-15T05:48:30.161Z,22.53
2023-02-15T05:51:01.584Z,23.40
2023-02-15T05:53:29.680Z,22.47
2023-02-15T05:56:00.483Z,22.63
2023-02-15T05:58:29.998Z,24.30
2023-02-15T06:00:57.945Z,23.07
2023-02-15T06:03:26.825Z,24.57
2023-02-15T06:05:53.962Z,24.10
2023-02-15T06:08:21.538Z,23.80
2023-02-15T06:10:48.350Z,25.33
2023-02-15T06:13:15.204Z,21.90
2023-02-15T06:15:41.969Z,17.50
2023-02-15T06:18:08.774Z,19.03
2023-02-15T06:20:35.606Z,19.90
2023-02-15T06:23:02.479Z,20.00
2023-02-15T06:25:29.899Z,20.03
2023-02-15T06:27:56.657Z,18.80
2023-02-15T06:30:23.401Z,19.77
2023-02-15T06:32:50.199Z,20.67
2023-02-15T06:35:17.101Z,21.63
2023-02-15T06:37:46.845Z,22.30
2023-02-15T06:40:14.022Z,20.70
2023-02-15T06:42:41.819Z,23.00
2023-02-15T06:45:09.258Z,18.80
2023-02-15T06:47:37.772Z,17.03
2023-02-15T06:50:07.692Z,18.63
2023-02-15T06:52:35.081Z,18.57
2023-02-15T06:55:02.114Z,18.93
2023-02-15T06:57:28.873Z,21.93
2023-02-15T06:59:55.734Z,21.70
2023-02-15T07:02:22.459Z,21.10
2023-02-15T07:04:49.222Z,22.03
2023-02-15T07:07:16.348Z,22.77
2023-02-15T07:09:43.245Z,18.97
2023-02-15T07:12:29.801Z,18.93
2023-02-15T07:14:56.641Z,22.87
2023-02-15T07:17:38.791Z,21.03
2023-02-15T07:20:14.151Z,21.83
2023-02-15T07:22:40.979Z,21.53
2023-02-15T07:25:10.553Z,20.57
2023-02-15T07:27:38.037Z,20.40
2023-02-15T07:30:06.300Z,19.10
2023-02-15T07:32:34.665Z,19.70
2023-02-15T07:35:02.157Z,20.83
2023-02-15T07:37:29.326Z,21.07
2023-02-15T07:39:56.268Z,20.40
2023-02-15T07:42:23.259Z,22.27
2023-02-15T07:44:50.448Z,25.70
2023-02-15T07:47:17.630Z,19.80
2023-02-15T07:49:44.570Z,19.07
2023-02-15T07:52:11.552Z,18.27
2023-02-15T07:54:38.607Z,17.07
2023-02-15T07:57:05.479Z,18.80
2023-02-15T07:59:32.357Z,18.47
2023-02-15T08:01:59.536Z,17.47
2023-02-15T08:04:26.624Z,17.63
2023-02-15T08:06:55.312Z,19.10
2023-02-15T08:09:22.969Z,20.73
2023-02-15T08:11:50.367Z,20.83
2023-02-15T08:14:25.605Z,26.07
2023-02-15T08:16:55.926Z,23.73
2023-02-15T08:19:32.704Z,25.20
2023-02-15T08:22:01.807Z,25.07
2023-02-15T08:24:32.723Z,21.43
2023-02-15T08:27:00.276Z,19.87
2023-02-15T08:29:29.607Z,20.97
2023-02-15T08:32:03.365Z,20.17
2023-02-15T08:34:32.541Z,20.97
2023-02-15T08:36:59.668Z,20.17
2023-02-15T08:39:26.421Z,21.77
2023-02-15T08:41:53.668Z,17.40
2023-02-15T08:44:21.512Z,18.93
2023-02-15T08:46:49.739Z,19.73
2023-02-15T08:49:21.865Z,17.90
2023-02-15T08:51:50.051Z,19.50
2023-02-15T08:54:20.072Z,18.70
2023-02-15T08:56:47.507Z,16.67
2023-02-15T08:59:17.771Z,16.50
2023-02-15T09:01:45.677Z,16.47
2023-02-15T09:04:14.214Z,16.43
2023-02-15T09:06:46.999Z,16.50
2023-02-15T09:09:15.799Z,16.47
2023-02-15T09:11:45.027Z,15.93
2023-02-15T09:14:15.449Z,17.00
2023-02-15T09:16:47.413Z,18.00
2023-02-15T09:19:14.608Z,20.27
2023-02-15T09:21:42.213Z,20.73
2023-02-15T09:24:11.892Z,17.87
2023-02-15T09:26:42.092Z,19.53
2023-02-15T09:29:10.087Z,19.03
2023-02-15T09:31:45.990Z,16.23
2023-02-15T09:34:15.352Z,15.73
2023-02-15T09:36:42.572Z,17.60
2023-02-15T09:39:15.068Z,16.73
2023-02-15T09:41:54.859Z,21.73
2023-02-15T09:44:47.612Z,22.03
2023-02-15T09:47:24.435Z,21.30
2023-02-15T09:50:15.801Z,18.63
2023-02-15T09:53:24.106Z,18.73
2023-02-15T09:56:17.231Z,18.47
2023-02-15T09:59:23.171Z,17.50
2023-02-15T10:02:05.750Z,17.13
2023-02-15T10:04:50.341Z,19.30
2023-02-15T10:07:52.941Z,20.60
2023-02-15T10:10:47.304Z,20.03
2023-02-15T10:13:42.698Z,21.57
2023-02-15T10:16:48.443Z,20.33
2023-02-15T10:19:46.206Z,22.17
2023-02-15T10:22:34.742Z,20.97
2023-02-15T10:25:40.449Z,23.13
2023-02-15T10:28:15.556Z,23.60
2023-02-15T10:30:52.984Z,24.43
2023-02-15T10:33:39.427Z,22.47
2023-02-15T10:36:06.479Z,20.77
2023-02-15T10:38:59.589Z,22.43
2023-02-15T10:41:58.235Z,21.93
2023-02-15T10:44:39.238Z,22.67
2023-02-15T10:47:13.024Z,22.70
2023-02-15T10:50:04.490Z,22.10
2023-02-15T10:52:52.424Z,21.63
2023-02-15T10:55:39.661Z,20.30
2023-02-15T10:58:18.862Z,20.20
2023-02-15T11:01:05.668Z,20.13
2023-02-15T11:03:57.210Z,19.83
2023-02-15T11:06:28.059Z,18.70
2023-02-15T11:09:02.337Z,21.10
2023-02-15T11:11:34.985Z,22.03
2023-02-15T11:14:06.509Z,25.97
2023-02-15T11:16:42.602Z,26.10
2023-02-15T11:19:36.718Z,26.63
2023-02-15T11:22:06.822Z,24.07
2023-02-15T11:24:42.441Z,23.43
2023-02-15T11:27:29.597Z,24.27
2023-02-15T11:29:57.017Z,21.60
2023-02-15T11:32:41.086Z,23.30
2023-02-15T11:35:22.535Z,23.10
2023-02-15T11:38:17.463Z,24.73
2023-02-15T11:40:55.739Z,22.03
2023-02-15T11:43:43.587Z,21.73
2023-02-15T11:46:13.130Z,20.97
2023-02-15T11:48:40.751Z,20.33
2023-02-15T11:51:14.708Z,19.30
2023-02-15T11:53:41.606Z,19.33
2023-02-15T11:56:18.906Z,19.27
2023-02-15T11:58:48.686Z,19.10
2023-02-15T12:01:19.576Z,19.83
2023-02-15T12:03:53.505Z,20.43
2023-02-15T12:06:23.654Z,19.00
2023-02-15T12:09:12.274Z,19.43
2023-02-15T12:11:41.737Z,20.30
2023-02-15T12:14:16.858Z,21.63
2023-02-15T12:16:54.486Z,22.80
2023-02-15T12:19:33.847Z,25.30
2023-02-15T12:22:04.668Z,24.80
2023-02-15T12:24:37.700Z,22.63
2023-02-15T12:27:35.454Z,20.80
2023-02-15T12:30:19.424Z,20.87
2023-02-15T12:32:55.408Z,21.73
2023-02-15T12:35:31.551Z,23.27
2023-02-15T12:38:11.462Z,24.27
2023-02-15T12:40:41.093Z,31.77
2023-02-15T12:43:37.114Z,25.00
2023-02-15T12:46:26.419Z,27.93
2023-02-15T12:49:20.993Z,28.40
2023-02-15T12:51:53.292Z,27.67
2023-02-15T12:54:42.195Z,25.70
2023-02-15T12:57:29.945Z,24.33
2023-02-15T13:00:04.057Z,26.67
2023-02-15T13:02:51.158Z,26.27
2023-02-15T13:05:31.619Z,26.17
2023-02-15T13:08:09.239Z,20.40
2023-02-15T13:10:40.388Z,23.37
2023-02-15T13:13:22.825Z,24.40
2023-02-15T13:15:56.251Z,23.40
2023-02-15T13:18:33.597Z,23.30
2023-02-15T13:21:23.097Z,24.50
2023-02-15T13:23:58.585Z,25.47
2023-02-15T13:26:30.613Z,26.30
2023-02-15T13:29:09.552Z,26.83
2023-02-15T13:31:37.467Z,27.97
2023-02-15T13:34:23.478Z,28.83
2023-02-15T13:37:13.822Z,30.20
2023-02-15T13:39:40.814Z,27.43
2023-02-15T13:42:22.357Z,29.83
2023-02-15T13:45:02.753Z,25.33
2023-02-15T13:47:50.144Z,24.93
2023-02-15T13:50:54.513Z,25.90
2023-02-15T13:53:42.802Z,25.33
2023-02-15T13:56:21.214Z,23.27
2023-02-15T13:58:54.879Z,27.17
2023-02-15T14:01:49.237Z,26.77
2023-02-15T14:04:30.741Z,25.00
2023-02-15T14:07:22.602Z,24.37
2023-02-15T14:10:05.467Z,24.63
2023-02-15T14:12:56.461Z,24.20
2023-02-15T14:15:25.926Z,23.67
2023-02-15T14:17:52.923Z,24.00
2023-02-15T14:20:25.764Z,22.43
2023-02-15T14:23:32.064Z,20.93
2023-02-15T14:26:07.386Z,22.23
2023-02-15T14:28:43.316Z,21.83
2023-02-15T14:31:14.246Z,21.67
2023-02-15T14:34:13.754Z,21.27
2023-02-15T14:36:40.751Z,20.50
2023-02-15T14:39:45.803Z,21.20
2023-02-15T14:42:33.817Z,19.00
2023-02-15T14:45:44.030Z,20.87
2023-02-15T14:48:19.039Z,20.30
2023-02-15T14:50:49.714Z,19.80
2023-02-15T14:53:24.201Z,21.30
2023-02-15T14:56:09.002Z,20.83
2023-02-15T14:58:38.389Z,21.27
2023-02-15T15:01:12.739Z,19.70
2023-02-15T15:03:53.933Z,22.97
2023-02-15T15:06:42.112Z,20.73
2023-02-15T15:09:22.393Z,20.40
2023-02-15T15:11:53.627Z,21.13
2023-02-15T15:14:33.566Z,21.80
2023-02-15T15:17:08.170Z,19.07
2023-02-15T15:19:52.355Z,19.47
2023-02-15T15:22:20.907Z,18.87
2023-02-15T15:24:58.597Z,18.07
2023-02-15T15:27:49.712Z,16.83
2023-02-15T15:30:19.701Z,18.37
2023-02-15T15:32:58.143Z,16.27
2023-02-15T15:35:54.612Z,16.77
2023-02-15T15:38:41.520Z,17.13
2023-02-15T15:41:23.650Z,18.53
2023-02-15T15:43:59.879Z,19.47
2023-02-15T15:46:31.832Z,18.40
2023-02-15T15:49:11.461Z,18.77
2023-02-15T15:51:42.641Z,18.83
2023-02-15T15:54:20.255Z,19.90
2023-02-15T15:57:03.195Z,19.20
2023-02-15T15:59:33.814Z,19.27
2023-02-15T16:02:16.398Z,20.40
2023-02-15T16:04:44.226Z,22.90
2023-02-15T16:07:20.495Z,20.90
2023-02-15T16:10:06.153Z,22.67
2023-02-15T16:12:37.941Z,20.57
2023-02-15T16:15:21.322Z,23.77
2023-02-15T16:17:55.968Z,21.40
2023-02-15T16:20:26.160Z,23.80
2023-02-15T16:23:27.138Z,23.50
2023-02-15T16:26:24.261Z,20.97
2023-02-15T16:28:53.257Z,21.23
2023-02-15T16:31:23.965Z,20.23
2023-02-15T16:33:54.864Z,23.77
2023-02-15T16:36:28.433Z,23.30
2023-02-15T16:38:58.333Z,19.90
2023-02-15T16:41:30.556Z,22.23
2023-02-15T16:44:07.060Z,24.83
2023-02-15T16:46:47.246Z,26.03
2023-02-15T16:49:26.723Z,26.30
2023-02-15T16:52:06.355Z,35.67
2023-02-15T16:54:34.892Z,31.73
2023-02-15T16:57:02.793Z,28.57
2023-02-15T16:59:43.348Z,22.77
2023-02-15T17:02:42.970Z,22.50
2023-02-15T17:05:20.887Z,20.33
2023-02-15T17:08:24.897Z,26.53
2023-02-15T17:11:00.756Z,24.47
2023-02-15T17:13:28.918Z,26.43
2023-02-15T17:16:02.470Z,23.40
2023-02-15T17:18:45.138Z,22.30
2023-02-15T17:21:18.130Z,24.57
2023-02-15T17:23:50.686Z,21.20
2023-02-15T17:26:30.987Z,20.90
2023-02-15T17:29:11.870Z,20.87
2023-02-15T17:31:39.262Z,20.73
2023-02-15T17:34:06.823Z,21.07
2023-02-15T17:36:33.837Z,22.27
2023-02-15T17:39:07.046Z,21.23
2023-02-15T17:41:35.928Z,21.00
2023-02-15T17:44:03.928Z,22.60
2023-02-15T17:46:36.884Z,23.40
2023-02-15T17:49:04.629Z,22.80
2023-02-15T17:51:33.120Z,23.20
2023-02-15T17:54:18.919Z,21.57
2023-02-15T17:56:45.735Z,22.70
2023-02-15T17:59:15.207Z,22.67
2023-02-15T18:02:05.918Z,22.77
2023-02-15T18:04:55.293Z,22.97
2023-02-15T18:07:40.792Z,22.77
2023-02-15T18:10:37.694Z,23.27
2023-02-15T18:13:04.800Z,23.23
2023-02-15T18:15:31.653Z,22.07
2023-02-15T18:17:58.736Z,25.27
2023-02-15T18:20:32.956Z,22.87
2023-02-15T18:23:02.017Z,25.67
2023-02-15T18:25:28.950Z,21.67
2023-02-15T18:27:55.762Z,24.97
2023-02-15T18:30:25.576Z,23.53
2023-02-15T18:32:56.538Z,20.20
2023-02-15T18:35:28.590Z,28.73
2023-02-15T18:37:55.947Z,23.97
2023-02-15T18:40:25.770Z,24.07
2023-02-15T18:42:53.060Z,26.67
2023-02-15T18:45:24.952Z,27.60
2023-02-15T18:47:52.035Z,23.87
2023-02-15T18:50:21.159Z,26.23
2023-02-15T18:52:51.599Z,26.00
2023-02-15T18:55:21.576Z,29.30
2023-02-15T18:57:49.526Z,28.83
2023-02-15T19:00:30.141Z,27.67
2023-02-15T19:02:57.696Z,27.90
2023-02-15T19:05:27.483Z,29.23
2023-02-15T19:07:55.227Z,29.43
2023-02-15T19:10:24.617Z,26.50
2023-02-15T19:12:52.516Z,26.03
2023-02-15T19:15:24.787Z,26.07
2023-02-15T19:17:52.381Z,28.27
2023-02-15T19:20:23.584Z,26.03
2023-02-15T19:22:52.267Z,26.93
2023-02-15T19:25:25.640Z,30.70
2023-02-15T19:27:54.845Z,26.20
2023-02-15T19:30:32.355Z,28.23
2023-02-15T19:32:59.906Z,33.17
2023-02-15T19:35:31.748Z,31.60
2023-02-15T19:38:01.779Z,29.23
2023-02-15T19:40:35.004Z,27.43
2023-02-15T19:43:03.162Z,27.00
2023-02-15T19:45:32.363Z,25.63
2023-02-15T19:48:01.853Z,29.57
2023-02-15T19:50:31.588Z,30.33
2023-02-15T19:52:58.498Z,30.50
2023-02-15T19:55:26.400Z,36.73
2023-02-15T19:57:54.628Z,48.60
2023-02-15T20:00:25.688Z,46.63
2023-02-15T20:02:53.511Z,45.67
2023-02-15T20:05:20.774Z,50.97
2023-02-15T20:07:50.139Z,51.33
2023-02-15T20:10:35.657Z,49.17
2023-02-15T20:13:02.924Z,45.27
2023-02-15T20:15:34.782Z,41.73
2023-02-15T20:18:04.098Z,39.33
2023-02-15T20:20:44.370Z,40.23
2023-02-15T20:23:27.433Z,39.60
2023-02-15T20:25:58.582Z,37.40
2023-02-15T20:28:29.275Z,36.20
2023-02-15T20:30:56.228Z,36.07
2023-02-15T20:33:23.627Z,34.53
2023-02-15T20:35:51.115Z,36.30
2023-02-15T20:38:28.111Z,38.43
2023-02-15T20:41:15.089Z,41.30
2023-02-15T20:43:41.866Z,41.50
2023-02-15T20:46:08.935Z,47.30
2023-02-15T20:48:36.211Z,51.93
2023-02-15T20:51:03.775Z,56.83
2023-02-15T20:53:31.061Z,55.80
2023-02-15T20:55:57.864Z,59.17
2023-02-15T20:58:27.703Z,58.03
2023-02-15T21:00:56.881Z,59.90
2023-02-15T21:03:27.918Z,58.43
2023-02-15T21:05:54.651Z,58.17
2023-02-15T21:08:22.949Z,53.57
2023-02-15T21:10:52.073Z,47.67
2023-02-15T21:13:22.113Z,46.60
2023-02-15T21:15:50.189Z,45.50
2023-02-15T21:18:23.665Z,50.13
2023-02-15T21:20:55.462Z,47.50
2023-02-15T21:23:27.029Z,58.83
2023-02-15T21:25:55.988Z,55.10
2023-02-15T21:28:25.525Z,49.83
2023-02-15T21:30:53.849Z,52.27
2023-02-15T21:33:21.130Z,45.43
2023-02-15T21:35:51.106Z,51.20
2023-02-15T21:38:21.448Z,61.13
2023-02-15T21:40:49.754Z,75.60
2023-02-15T21:43:41.397Z,63.37
2023-02-15T21:46:37.168Z,53.70
2023-02-15T21:49:07.124Z,52.37
2023-02-15T21:51:52.872Z,53.33
2023-02-15T21:54:21.747Z,53.50
2023-02-15T21:56:50.940Z,69.03
2023-02-15T21:59:18.520Z,65.17
2023-02-15T22:01:48.398Z,72.17
2023-02-15T22:04:23.240Z,67.13
2023-02-15T22:06:50.357Z,70.40
2023-02-15T22:09:20.632Z,63.80
2023-02-15T22:11:48.506Z,58.10
2023-02-15T22:14:37.133Z,62.60
2023-02-15T22:17:14.980Z,62.97
2023-02-15T22:19:42.625Z,57.03
2023-02-15T22:22:10.268Z,54.03
2023-02-15T22:24:37.309Z,73.00
2023-02-15T22:27:05.804Z,73.13
2023-02-15T22:29:33.810Z,59.47
2023-02-15T22:32:00.875Z,56.47
2023-02-15T22:34:32.436Z,65.07
2023-02-15T22:36:59.677Z,67.17
2023-02-15T22:39:26.508Z,73.03
2023-02-15T22:41:54.350Z,58.90
2023-02-15T22:44:28.753Z,58.80
2023-02-15T22:46:56.321Z,56.50
2023-02-15T22:49:23.124Z,52.90
2023-02-15T22:51:51.464Z,49.13
2023-02-15T22:54:19.124Z,43.47
2023-02-15T22:56:53.273Z,39.03
2023-02-15T22:59:29.014Z,36.33
2023-02-15T23:01:57.132Z,34.40
2023-02-15T23:04:27.464Z,35.03
2023-02-15T23:06:57.564Z,34.27
2023-02-15T23:09:24.808Z,37.50
2023-02-15T23:11:52.950Z,34.90
2023-02-15T23:14:27.378Z,40.53
2023-02-15T23:16:54.711Z,37.17
2023-02-15T23:19:21.828Z,36.13
2023-02-15T23:21:50.295Z,34.80
2023-02-15T23:24:25.683Z,36.20
2023-02-15T23:26:53.725Z,36.50
2023-02-15T23:29:23.821Z,36.07
2023-02-15T23:31:53.115Z,37.40
2023-02-15T23:34:22.637Z,36.33
2023-02-15T23:36:49.795Z,33.47
2023-02-15T23:39:38.289Z,35.80
2023-02-15T23:42:10.092Z,39.97
2023-02-15T23:44:38.073Z,40.13
2023-02-15T23:47:07.187Z,41.23
2023-02-15T23:49:33.955Z,40.40
2023-02-15T23:52:01.856Z,45.57
2023-02-15T23:54:28.870Z,49.10
2023-02-15T23:57:00.115Z,48.10
2023-02-15T23:59:28.970Z,43.73
